sensor_id;sensor_type;location;lat;lon;timestamp;pressure;altitude;pressure_sealevel;temperature;humidity
19674;BME280;9986;50.610;7.230;2023-10-09T00:04:31;48316.81;;;14.99;100.00
19674;BME280;9986;50.610;7.230;2023-10-09T00:17:54;34122.80;;;14.91;100.00
19674;BME280;9986;50.610;7.230;2023-10-09T00:28:33;33786.21;;;14.86;100.00
19674;BME280;9986;50.610;7.230;2023-10-09T00:36:25;41456.29;;;14.88;100.00
19674;BME280;9986;50.610;7.230;2023-10-09T00:44:17;24803.70;;;14.80;100.00
19674;BME280;9986;50.610;7.230;2023-10-09T00:57:41;29786.77;;;14.76;100.00
19674;BME280;9986;50.610;7.230;2023-10-09T01:05:46;1142.41;;;14.78;100.00
19674;BME280;9986;50.610;7.230;2023-10-09T01:11:03;10719.12;;;14.81;100.00
19674;BME280;9986;50.610;7.230;2023-10-09T01:16:23;2790.18;;;14.68;100.00
19674;BME280;9986;50.610;7.230;2023-10-09T01:27:01;3780.29;;;14.71;100.00
19674;BME280;9986;50.610;7.230;2023-10-09T01:34:54;-10376.94;;;14.68;100.00
19674;BME280;9986;50.610;7.230;2023-10-09T01:42:46;-3635.23;;;14.76;100.00
19674;BME280;9986;50.610;7.230;2023-10-09T01:56:09;5594.68;;;14.66;100.00
19674;BME280;9986;50.610;7.230;2023-10-09T01:58:43;12861.04;;;14.58;100.00
19674;BME280;9986;50.610;7.230;2023-10-09T02:06:43;30275.26;;;14.58;100.00
19674;BME280;9986;50.610;7.230;2023-10-09T02:19:46;28609.68;;;14.52;100.00
19674;BME280;9986;50.610;7.230;2023-10-09T02:35:38;30933.02;;;14.46;100.00
19674;BME280;9986;50.610;7.230;2023-10-09T02:40:53;25947.73;;;14.44;100.00
19674;BME280;9986;50.610;7.230;2023-10-09T02:46:15;25281.77;;;14.40;100.00
19674;BME280;9986;50.610;7.230;2023-10-09T02:51:30;34759.67;;;14.46;100.00
19674;BME280;9986;50.610;7.230;2023-10-09T02:59:31;39255.59;;;14.44;100.00
19674;BME280;9986;50.610;7.230;2023-10-09T03:04:44;34256.46;;;14.40;100.00
19674;BME280;9986;50.610;7.230;2023-10-09T03:12:41;9055.75;;;14.36;100.00
19674;BME280;9986;50.610;7.230;2023-10-09T03:20:32;14346.32;;;14.41;100.00
19674;BME280;9986;50.610;7.230;2023-10-09T03:28:25;4763.41;;;14.28;100.00
19674;BME280;9986;50.610;7.230;2023-10-09T03:33:38;-3471.82;;;14.29;100.00
19674;BME280;9986;50.610;7.230;2023-10-09T03:38:51;-1002.85;;;14.37;100.00
19674;BME280;9986;50.610;7.230;2023-10-09T03:49:28;-11030.80;;;14.36;100.00
19674;BME280;9986;50.610;7.230;2023-10-09T03:57:25;1303.54;;;14.42;100.00
19674;BME280;9986;50.610;7.230;2023-10-09T04:02:38;10378.34;;;14.41;100.00
19674;BME280;9986;50.610;7.230;2023-10-09T04:07:51;17161.05;;;14.45;100.00
19674;BME280;9986;50.610;7.230;2023-10-09T04:18:27;1138.26;;;14.37;100.00
19674;BME280;9986;50.610;7.230;2023-10-09T05:58:42;-14.86;;;14.37;100.00
19674;BME280;9986;50.610;7.230;2023-10-09T06:04:08;5425.17;;;14.40;100.00
19674;BME280;9986;50.610;7.230;2023-10-09T06:14:49;8066.73;;;14.44;100.00
19674;BME280;9986;50.610;7.230;2023-10-09T06:20:06;11371.33;;;14.46;100.00
19674;BME280;9986;50.610;7.230;2023-10-09T06:36:27;4601.50;;;14.47;100.00
19674;BME280;9986;50.610;7.230;2023-10-09T06:44:44;9225.34;;;14.55;100.00
19674;BME280;9986;50.610;7.230;2023-10-09T06:55:35;-2647.97;;;14.61;100.00
19674;BME280;9986;50.610;7.230;2023-10-09T07:03:26;1306.71;;;14.73;100.00
19674;BME280;9986;50.610;7.230;2023-10-09T07:19:33;4113.71;;;14.94;100.00
19674;BME280;9986;50.610;7.230;2023-10-09T07:30:20;5272.94;;;15.15;100.00
19674;BME280;9986;50.610;7.230;2023-10-09T07:35:49;5439.06;;;15.21;100.00
19674;BME280;9986;50.610;7.230;2023-10-09T07:41:08;5771.69;;;15.33;100.00
19674;BME280;9986;50.610;7.230;2023-10-09T07:49:20;1974.66;;;15.46;100.00
19674;BME280;9986;50.610;7.230;2023-10-09T07:57:14;3297.83;;;15.62;100.00
19674;BME280;9986;50.610;7.230;2023-10-09T08:02:29;1977.02;;;15.66;100.00
19674;BME280;9986;50.610;7.230;2023-10-09T08:10:29;5946.39;;;15.86;100.00
19674;BME280;9986;50.610;7.230;2023-10-09T08:15:58;11412.37;;;15.98;100.00
19674;BME280;9986;50.610;7.230;2023-10-09T08:29:06;13740.74;;;16.23;100.00
19674;BME280;9986;50.610;7.230;2023-10-09T08:39:55;20890.37;;;16.43;100.00
19674;BME280;9986;50.610;7.230;2023-10-09T08:50:33;29393.65;;;16.63;100.00
19674;BME280;9986;50.610;7.230;2023-10-09T08:58:34;37255.08;;;16.82;100.00
19674;BME280;9986;50.610;7.230;2023-10-09T09:03:50;41450.54;;;16.98;100.00
19674;BME280;9986;50.610;7.230;2023-10-09T09:14:37;51197.28;;;17.18;100.00
19674;BME280;9986;50.610;7.230;2023-10-09T09:19:47;59787.03;;;17.29;100.00
19674;BME280;9986;50.610;7.230;2023-10-09T09:25:03;63008.48;;;17.45;100.00
19674;BME280;9986;50.610;7.230;2023-10-09T09:36:07;81140.39;;;17.70;100.00
19674;BME280;9986;50.610;7.230;2023-10-09T09:41:25;119883.45;;;17.79;100.00
19674;BME280;9986;50.610;7.230;2023-10-09T09:46:38;147280.98;;;17.84;100.00
19674;BME280;9986;50.610;7.230;2023-10-09T09:51:54;126628.97;;;18.00;100.00
19674;BME280;9986;50.610;7.230;2023-10-09T09:57:08;133579.52;;;18.29;100.00
19674;BME280;9986;50.610;7.230;2023-10-09T10:10:42;147459.62;;;18.54;100.00
19674;BME280;9986;50.610;7.230;2023-10-09T10:18:57;147502.66;;;18.71;100.00
19674;BME280;9986;50.610;7.230;2023-10-09T10:24:42;147548.28;;;18.89;100.00
19674;BME280;9986;50.610;7.230;2023-10-09T10:33:17;147628.17;;;19.20;100.00
19674;BME280;9986;50.610;7.230;2023-10-09T10:46:43;147730.83;;;19.61;100.00
19674;BME280;9986;50.610;7.230;2023-10-09T11:05:32;147928.73;;;20.38;100.00
19674;BME280;9986;50.610;7.230;2023-10-09T11:13:29;147980.77;;;20.59;100.00
19674;BME280;9986;50.610;7.230;2023-10-09T11:18:46;148029.02;;;20.77;100.00
19674;BME280;9986;50.610;7.230;2023-10-09T11:23:55;148070.94;;;20.94;100.00
19674;BME280;9986;50.610;7.230;2023-10-09T11:37:23;148208.06;;;21.48;100.00
19674;BME280;9986;50.610;7.230;2023-10-09T11:45:51;148236.05;;;21.59;100.00
19674;BME280;9986;50.610;7.230;2023-10-09T11:51:11;148284.33;;;21.77;100.00
19674;BME280;9986;50.610;7.230;2023-10-09T11:56:26;148340.22;;;21.99;100.00
19674;BME280;9986;50.610;7.230;2023-10-09T12:07:03;148368.16;;;22.10;100.00
19674;BME280;9986;50.610;7.230;2023-10-09T12:12:19;148375.80;;;22.13;100.00
19674;BME280;9986;50.610;7.230;2023-10-09T12:17:48;148421.56;;;22.31;100.00
19674;BME280;9986;50.610;7.230;2023-10-09T12:25:54;148482.61;;;22.55;100.00
19674;BME280;9986;50.610;7.230;2023-10-09T12:36:31;148581.78;;;22.94;100.00
19674;BME280;9986;50.610;7.230;2023-10-09T12:52:23;148599.55;;;23.01;100.00
19674;BME280;9986;50.610;7.230;2023-10-09T12:57:33;148621.22;;;23.09;100.00
19674;BME280;9986;50.610;7.230;2023-10-09T13:08:12;148646.64;;;23.19;100.00
19674;BME280;9986;50.610;7.230;2023-10-09T13:18:46;148647.95;;;23.20;100.00
19674;BME280;9986;50.610;7.230;2023-10-09T13:24:02;148653.05;;;23.22;100.00
19674;BME280;9986;50.610;7.230;2023-10-09T13:29:13;148659.38;;;23.24;100.00
19674;BME280;9986;50.610;7.230;2023-10-09T13:34:29;148663.19;;;23.26;100.00
19674;BME280;9986;50.610;7.230;2023-10-09T13:45:07;148655.59;;;23.23;100.00
19674;BME280;9986;50.610;7.230;2023-10-09T13:53:07;148635.22;;;23.15;100.00
19674;BME280;9986;50.610;7.230;2023-10-09T14:03:58;148637.75;;;23.16;100.00
19674;BME280;9986;50.610;7.230;2023-10-09T14:09:11;148591.97;;;22.98;100.00
19674;BME280;9986;50.610;7.230;2023-10-09T14:22:37;148604.64;;;23.03;100.00
19674;BME280;9986;50.610;7.230;2023-10-09T14:30:28;148577.92;;;22.92;100.00
19674;BME280;9986;50.610;7.230;2023-10-09T14:38:24;148581.78;;;22.94;100.00
19674;BME280;9986;50.610;7.230;2023-10-09T14:46:22;148608.48;;;23.04;100.00
19674;BME280;9986;50.610;7.230;2023-10-09T15:02:16;148637.75;;;23.16;95.57
19674;BME280;9986;50.610;7.230;2023-10-09T15:07:29;148640.31;;;23.17;95.68
19674;BME280;9986;50.610;7.230;2023-10-09T15:12:44;148591.97;;;22.98;95.80
19674;BME280;9986;50.610;7.230;2023-10-09T15:23:22;148557.59;;;22.84;98.57
19674;BME280;9986;50.610;7.230;2023-10-09T15:28:35;148518.20;;;22.69;99.74
19674;BME280;9986;50.610;7.230;2023-10-09T15:33:51;148549.97;;;22.81;100.00
19674;BME280;9986;50.610;7.230;2023-10-09T15:47:09;148421.56;;;22.31;100.00
19674;BME280;9986;50.610;7.230;2023-10-09T16:14:01;148322.45;;;21.92;100.00
19674;BME280;9986;50.610;7.230;2023-10-09T16:19:10;148304.64;;;21.85;100.00
19674;BME280;9986;50.610;7.230;2023-10-09T16:24:23;148302.09;;;21.84;100.00
19674;BME280;9986;50.610;7.230;2023-10-09T16:34:52;148237.34;;;21.59;100.00
19674;BME280;9986;50.610;7.230;2023-10-09T16:42:50;148230.97;;;21.57;100.00
19674;BME280;9986;50.610;7.230;2023-10-09T16:50:51;148192.84;;;21.42;100.00
19674;BME280;9986;50.610;7.230;2023-10-09T16:56:05;148173.80;;;21.34;100.00
19674;BME280;9986;50.610;7.230;2023-10-09T17:01:21;148147.13;;;21.24;100.00
19674;BME280;9986;50.610;7.230;2023-10-09T17:14:49;148053.19;;;20.87;100.00
19674;BME280;9986;50.610;7.230;2023-10-09T17:22:46;148008.72;;;20.70;100.00
19674;BME280;9986;50.610;7.230;2023-10-09T17:28:01;148001.09;;;20.67;100.00
19674;BME280;9986;50.610;7.230;2023-10-09T17:38:50;147927.50;;;20.38;100.00
19674;BME280;9986;50.610;7.230;2023-10-09T17:44:03;147874.23;;;20.17;100.00
19674;BME280;9986;50.610;7.230;2023-10-09T17:52:00;147758.77;;;19.72;100.00
19674;BME280;9986;50.610;7.230;2023-10-09T17:59:53;147794.22;;;19.85;100.00
19674;BME280;9986;50.610;7.230;2023-10-09T18:13:12;147768.88;;;19.75;100.00
19674;BME280;9986;50.610;7.230;2023-10-09T18:26:34;147676.36;;;19.39;100.00
19674;BME280;9986;50.610;7.230;2023-10-09T18:31:47;147647.19;;;19.28;100.00
19674;BME280;9986;50.610;7.230;2023-10-09T18:37:01;147643.36;;;19.26;100.00
19674;BME280;9986;50.610;7.230;2023-10-09T18:44:56;147547.00;;;18.88;100.00
19674;BME280;9986;50.610;7.230;2023-10-09T18:53:08;147566.00;;;18.96;100.00
19674;BME280;9986;50.610;7.230;2023-10-09T19:03:47;147507.73;;;18.73;100.00
19674;BME280;9986;50.610;7.230;2023-10-09T19:11:41;147503.95;;;18.72;100.00
19674;BME280;9986;50.610;7.230;2023-10-09T19:16:56;147440.63;;;18.47;100.00
19674;BME280;9986;50.610;7.230;2023-10-09T19:22:12;147411.47;;;18.35;100.00
19674;BME280;9986;50.610;7.230;2023-10-09T19:32:53;147408.94;;;18.34;100.00
19674;BME280;9986;50.610;7.230;2023-10-09T19:38:06;147345.56;;;18.09;100.00
19674;BME280;9986;50.610;7.230;2023-10-09T19:43:20;147324.03;;;18.01;100.00
19674;BME280;9986;50.610;7.230;2023-10-09T19:48:33;147289.88;;;17.87;100.00
19674;BME280;9986;50.610;7.230;2023-10-09T19:59:14;147165.81;;;17.39;100.00
19674;BME280;9986;50.610;7.230;2023-10-09T20:04:23;147145.58;;;17.31;100.00
19674;BME280;9986;50.610;7.230;2023-10-09T20:12:14;147175.94;;;17.43;100.00
19674;BME280;9986;50.610;7.230;2023-10-09T20:17:27;147092.41;;;17.10;100.00
19674;BME280;9986;50.610;7.230;2023-10-09T20:22:40;147115.17;;;17.19;100.00
19674;BME280;9986;50.610;7.230;2023-10-09T20:27:53;147111.34;;;17.17;100.00
19674;BME280;9986;50.610;7.230;2023-10-09T20:33:08;147110.11;;;17.17;100.00
19674;BME280;9986;50.610;7.230;2023-10-09T20:38:21;147050.63;;;16.93;100.00
19674;BME280;9986;50.610;7.230;2023-10-09T20:40:52;147062.02;;;16.98;100.00
19674;BME280;9986;50.610;7.230;2023-10-09T20:48:44;147046.86;;;16.92;100.00
19674;BME280;9986;50.610;7.230;2023-10-09T20:59:24;146998.78;;;16.73;100.00
19674;BME280;9986;50.610;7.230;2023-10-09T21:04:38;146978.56;;;16.65;100.00
19674;BME280;9986;50.610;7.230;2023-10-09T21:17:58;146855.88;;;16.17;100.00
19674;BME280;9986;50.610;7.230;2023-10-09T21:23:12;146879.89;;;16.26;100.00
19674;BME280;9986;50.610;7.230;2023-10-09T21:28:27;146897.63;;;16.33;100.00
19674;BME280;9986;50.610;7.230;2023-10-09T21:33:36;146890.08;;;16.30;100.00
19674;BME280;9986;50.610;7.230;2023-10-09T21:41:29;146848.28;;;16.14;100.00
19674;BME280;9986;50.610;7.230;2023-10-09T21:51:58;146807.87;;;15.98;100.00
19674;BME280;9986;50.610;7.230;2023-10-09T21:57:14;146805.34;;;15.97;100.00
19674;BME280;9986;50.610;7.230;2023-10-09T22:02:28;146695.42;;;15.54;100.00
19674;BME280;9986;50.610;7.230;2023-10-09T22:07:43;146709.31;;;15.59;100.00
19674;BME280;9986;50.610;7.230;2023-10-09T22:23:46;146681.47;;;15.48;100.00
19674;BME280;9986;50.610;7.230;2023-10-09T23:01:01;146586.73;;;15.11;100.00
19674;BME280;9986;50.610;7.230;2023-10-09T23:06:10;146545.08;;;14.95;100.00
19674;BME280;9986;50.610;7.230;2023-10-09T23:11:25;146562.73;;;15.01;100.00
19674;BME280;9986;50.610;7.230;2023-10-09T23:19:16;146498.31;;;14.76;100.00
19674;BME280;9986;50.610;7.230;2023-10-09T23:27:24;146517.27;;;14.84;100.00
19674;BME280;9986;50.610;7.230;2023-10-09T23:32:49;146430.22;;;14.49;100.00
19674;BME280;9986;50.610;7.230;2023-10-09T23:38:00;146484.44;;;14.71;100.00
19674;BME280;9986;50.610;7.230;2023-10-09T23:43:33;146485.72;;;14.71;100.00
19674;BME280;9986;50.610;7.230;2023-10-09T23:54:04;146455.44;;;14.59;100.00
